Time;durP1;ratioP1;P1;durP2;ratioP2;P2;SDS_P1;SDS_P2;PMS_P1;PMS_P2;Temp;Humidity;BMP_temperature;BMP_pressure;BME280_temperature;BME280_humidity;BME280_pressure;Samples;Min_cycle;Max_cycle;Signal;HPM_P1;HPM_P2
2022/10/16 00:01:13;;;;;;;2.20;0.60;;;16.20;79.30;;;;;;5032647;28;20466;-77
2022/10/16 00:03:40;;;;;;;1.10;0.47;;;16.20;79.00;;;;;;5032556;28;20028;-77
2022/10/16 00:06:07;;;;;;;2.60;0.40;;;16.20;78.80;;;;;;5032423;28;20041;-77
2022/10/16 00:08:33;;;;;;;5.97;0.60;;;16.20;78.80;;;;;;5032493;28;20028;-77
2022/10/16 00:11:13;;;;;;;2.05;0.50;;;16.20;78.60;;;;;;5032552;28;20574;-77
2022/10/16 00:13:41;;;;;;;3.40;0.57;;;16.20;78.60;;;;;;5032449;28;20026;-77
2022/10/16 00:16:08;;;;;;;2.63;0.60;;;16.20;78.60;;;;;;5032502;28;20017;-77
2022/10/16 00:18:34;;;;;;;2.38;0.40;;;16.20;78.80;;;;;;5032243;28;20021;-77
2022/10/16 00:21:18;;;;;;;0.60;0.60;;;16.20;78.90;;;;;;5032562;28;20029;-77
2022/10/16 00:23:44;;;;;;;0.82;0.40;;;16.20;79.10;;;;;;5032343;28;20025;-77
2022/10/16 00:26:13;;;;;;;2.05;0.50;;;16.10;79.20;;;;;;5032322;28;20029;-77
2022/10/16 00:28:39;;;;;;;0.52;0.40;;;16.10;79.50;;;;;;5014289;28;20055;-77
2022/10/16 00:31:07;;;;;;;1.02;0.55;;;16.10;79.60;;;;;;5032320;28;20049;-77
2022/10/16 00:33:33;;;;;;;0.90;0.60;;;16.10;79.60;;;;;;5032349;28;20478;-77
2022/10/16 00:36:00;;;;;;;3.97;0.65;;;16.00;79.50;;;;;;5033770;28;20036;-77
2022/10/16 00:38:26;;;;;;;1.23;0.60;;;16.10;79.40;;;;;;5035807;28;20030;-77
2022/10/16 00:40:51;;;;;;;1.05;0.50;;;16.10;79.40;;;;;;5035711;28;20034;-77
2022/10/16 00:43:43;;;;;;;0.75;0.40;;;16.10;79.40;;;;;;5035399;28;20080;-77
2022/10/16 00:46:44;;;;;;;0.98;0.55;;;16.10;79.40;;;;;;5017545;28;20128;-75
2022/10/16 00:49:15;;;;;;;1.90;0.45;;;16.10;79.40;;;;;;4974329;28;20034;-77
2022/10/16 00:51:46;;;;;;;0.85;0.63;;;16.10;79.40;;;;;;5025037;28;20033;-76
2022/10/16 00:54:17;;;;;;;1.95;0.40;;;16.10;79.30;;;;;;5035242;28;20100;-77
2022/10/16 00:56:44;;;;;;;1.80;0.60;;;16.20;79.10;;;;;;5017597;28;20017;-77
2022/10/16 00:59:20;;;;;;;1.20;0.60;;;16.20;79.10;;;;;;5035483;28;20079;-77
2022/10/16 01:01:46;;;;;;;1.00;0.50;;;16.20;79.10;;;;;;5035379;28;20053;-77
2022/10/16 01:04:11;;;;;;;0.85;0.60;;;16.20;79.00;;;;;;5035478;28;20474;-77
2022/10/16 01:06:51;;;;;;;2.15;0.70;;;16.20;79.00;;;;;;5035374;28;20025;-77
2022/10/16 01:09:33;;;;;;;1.90;0.70;;;16.20;78.80;;;;;;5035277;28;20079;-77
2022/10/16 01:12:12;;;;;;;0.60;0.47;;;16.30;78.90;;;;;;5035304;28;20104;-77
2022/10/16 01:14:48;;;;;;;2.05;0.80;;;16.30;78.60;;;;;;5035236;28;20029;-77
2022/10/16 01:17:28;;;;;;;0.50;0.50;;;16.30;78.40;;;;;;5035157;28;20067;-77
2022/10/16 01:20:34;;;;;;;1.98;0.60;;;16.40;77.80;;;;;;5015219;28;20474;-76
2022/10/16 01:23:27;;;;;;;1.80;0.70;;;16.40;77.70;;;;;;5015065;28;20133;-77
2022/10/16 01:26:46;;;;;;;1.20;0.60;;;16.40;77.70;;;;;;5015141;28;20037;-77
2022/10/16 01:29:23;;;;;;;1.67;0.70;;;16.40;78.50;;;;;;4954502;29;20027;-77
2022/10/16 01:31:56;;;;;;;5.68;0.50;;;16.40;77.80;;;;;;4997658;28;20085;-77
2022/10/16 01:34:31;;;;;;;1.60;0.57;;;16.40;77.90;;;;;;5014961;28;20018;-77
2022/10/16 01:37:03;;;;;;;1.65;0.50;;;16.40;78.10;;;;;;5014961;28;20474;-77
2022/10/16 01:39:33;;;;;;;1.15;0.70;;;16.40;78.10;;;;;;4997420;28;20033;-77
2022/10/16 01:42:05;;;;;;;0.80;0.57;;;16.40;78.10;;;;;;5015176;28;20068;-77
2022/10/16 01:44:33;;;;;;;2.72;0.65;;;16.40;78.20;;;;;;5014527;28;20041;-77
2022/10/16 01:47:00;;;;;;;2.05;0.50;;;16.40;78.10;;;;;;5014104;28;20432;-77
2022/10/16 01:49:33;;;;;;;1.90;0.70;;;16.40;78.20;;;;;;5014769;28;20184;-77
2022/10/16 01:52:02;;;;;;;0.98;0.65;;;16.40;78.10;;;;;;4997093;28;20386;-77
2022/10/16 01:54:30;;;;;;;3.20;0.80;;;16.30;78.10;;;;;;5014601;28;20508;-77
2022/10/16 01:56:58;;;;;;;1.42;0.57;;;16.40;78.20;;;;;;5014734;28;20488;-77
2022/10/16 01:59:27;;;;;;;2.75;0.80;;;16.40;78.20;;;;;;5014293;28;20021;-77
2022/10/16 02:01:58;;;;;;;1.02;0.50;;;16.30;78.20;;;;;;5014560;28;20371;-77
2022/10/16 02:04:32;;;;;;;1.45;0.50;;;16.40;78.20;;;;;;5014163;28;20033;-77
2022/10/16 02:06:58;;;;;;;1.23;0.70;;;16.40;78.20;;;;;;5014428;28;20037;-77
2022/10/16 02:09:24;;;;;;;4.03;0.88;;;16.40;78.20;;;;;;5014285;28;20097;-78
2022/10/16 02:11:53;;;;;;;0.57;0.47;;;16.40;78.30;;;;;;5014395;28;20052;-77
2022/10/16 02:14:19;;;;;;;3.25;0.90;;;16.40;78.30;;;;;;4996662;28;20076;-77
2022/10/16 02:16:46;;;;;;;1.20;0.73;;;16.30;78.20;;;;;;5014220;28;20030;-77
2022/10/16 02:19:14;;;;;;;1.52;0.70;;;16.30;78.30;;;;;;5014318;28;20434;-77
2022/10/16 02:21:51;;;;;;;2.05;0.95;;;16.30;78.30;;;;;;5013917;28;20040;-77
2022/10/16 02:24:32;;;;;;;3.50;0.60;;;16.30;78.20;;;;;;5013897;28;20061;-77
2022/10/16 02:27:14;;;;;;;0.75;0.60;;;16.30;78.20;;;;;;5014186;28;20114;-77
2022/10/16 02:29:48;;;;;;;0.63;0.60;;;16.30;78.30;;;;;;5013612;28;20033;-77
2022/10/16 02:32:19;;;;;;;1.17;0.55;;;16.30;78.30;;;;;;5014174;28;20374;-77
2022/10/16 02:34:46;;;;;;;0.85;0.52;;;16.30;78.20;;;;;;5013895;28;20029;-77
2022/10/16 02:37:13;;;;;;;2.58;0.45;;;16.30;78.20;;;;;;5013839;28;20076;-77
2022/10/16 02:39:40;;;;;;;2.13;0.60;;;16.30;78.20;;;;;;4996046;28;20087;-77
2022/10/16 02:42:13;;;;;;;0.70;0.50;;;16.30;78.30;;;;;;4996070;28;20386;-77
2022/10/16 02:44:38;;;;;;;2.58;0.73;;;16.30;78.20;;;;;;5013570;28;20133;-78
2022/10/16 02:47:04;;;;;;;2.45;0.60;;;16.30;78.10;;;;;;5013679;28;20060;-78
2022/10/16 02:49:29;;;;;;;0.75;0.50;;;16.30;78.00;;;;;;5013739;28;20026;-78
2022/10/16 02:51:55;;;;;;;1.88;0.68;;;16.30;77.90;;;;;;5013546;28;20475;-78
2022/10/16 02:54:20;;;;;;;0.60;0.60;;;16.30;77.80;;;;;;5013497;28;20026;-77
2022/10/16 02:56:46;;;;;;;5.45;1.00;;;16.30;77.80;;;;;;5013523;28;20073;-78
2022/10/16 02:59:11;;;;;;;0.77;0.60;;;16.30;77.80;;;;;;5013374;28;20026;-77
2022/10/16 03:01:37;;;;;;;1.20;0.60;;;16.30;77.80;;;;;;5013455;28;20483;-77
2022/10/16 03:04:03;;;;;;;3.25;1.00;;;16.30;77.80;;;;;;5013502;28;20156;-77
2022/10/16 03:06:28;;;;;;;0.60;0.47;;;16.20;77.70;;;;;;5013398;28;20026;-77
2022/10/16 03:08:54;;;;;;;1.13;0.60;;;16.20;77.70;;;;;;5003261;28;20430;-78
2022/10/16 03:11:19;;;;;;;1.52;0.85;;;16.30;77.90;;;;;;5013259;28;20367;-78
2022/10/16 03:13:45;;;;;;;2.40;0.70;;;16.20;77.80;;;;;;5013477;28;20029;-78
2022/10/16 03:16:10;;;;;;;0.77;0.60;;;16.20;77.70;;;;;;5013212;28;20021;-78
2022/10/16 03:18:37;;;;;;;3.08;0.68;;;16.20;77.70;;;;;;5013186;28;20101;-78
2022/10/16 03:21:03;;;;;;;0.70;0.60;;;16.20;77.70;;;;;;5013218;28;20022;-78
2022/10/16 03:23:28;;;;;;;1.67;0.70;;;16.20;77.80;;;;;;5013122;28;20025;-78
2022/10/16 03:25:54;;;;;;;0.88;0.73;;;16.20;77.90;;;;;;4995463;28;20132;-78
2022/10/16 03:28:19;;;;;;;1.08;0.60;;;16.20;77.90;;;;;;5013086;28;20034;-77
2022/10/16 03:30:45;;;;;;;2.05;0.90;;;16.20;78.00;;;;;;5013108;28;20053;-78
2022/10/16 03:33:11;;;;;;;2.42;1.00;;;16.20;77.90;;;;;;4995468;28;20030;-78
2022/10/16 03:35:36;;;;;;;0.90;0.75;;;16.20;77.90;;;;;;5013104;28;20061;-77
2022/10/16 03:38:02;;;;;;;2.65;0.80;;;16.10;78.00;;;;;;5013003;28;20018;-78
2022/10/16 03:40:27;;;;;;;2.08;0.85;;;16.20;78.00;;;;;;5012898;28;20080;-77
2022/10/16 03:42:57;;;;;;;3.55;0.75;;;16.20;78.00;;;;;;5012976;28;20033;-78
2022/10/16 03:45:22;;;;;;;2.58;0.80;;;16.20;78.00;;;;;;5012902;28;20049;-78
2022/10/16 03:47:48;;;;;;;1.75;0.85;;;16.20;78.10;;;;;;5013023;28;20169;-77
2022/10/16 03:50:14;;;;;;;0.63;0.60;;;16.20;78.10;;;;;;5013053;28;20022;-77
2022/10/16 03:52:39;;;;;;;2.13;0.93;;;16.10;78.10;;;;;;5012807;28;20037;-78
2022/10/16 03:55:05;;;;;;;1.15;0.75;;;16.20;78.10;;;;;;4995261;28;20371;-78
2022/10/16 03:57:31;;;;;;;1.08;0.82;;;16.10;78.30;;;;;;5012530;28;20054;-77
2022/10/16 03:59:56;;;;;;;0.98;0.80;;;16.10;78.30;;;;;;5012680;28;20030;-78
2022/10/16 04:02:22;;;;;;;3.25;0.90;;;16.10;78.00;;;;;;5012812;28;20022;-77
2022/10/16 04:04:48;;;;;;;0.93;0.70;;;16.10;78.00;;;;;;5012768;28;20033;-78
2022/10/16 04:07:13;;;;;;;0.68;0.68;;;16.10;78.00;;;;;;5012817;28;20036;-78
2022/10/16 04:09:39;;;;;;;2.40;0.73;;;16.20;77.80;;;;;;5012603;28;20029;-77
2022/10/16 04:12:04;;;;;;;1.10;0.60;;;16.10;77.50;;;;;;5016002;28;20049;-77
2022/10/16 04:14:30;;;;;;;3.97;0.80;;;16.10;77.50;;;;;;5016340;28;20026;-78
2022/10/16 04:16:56;;;;;;;4.45;0.80;;;16.20;77.60;;;;;;5016236;28;20057;-78
2022/10/16 04:19:21;;;;;;;1.90;0.70;;;16.10;77.70;;;;;;5016319;28;20037;-78
2022/10/16 04:21:47;;;;;;;2.58;0.63;;;16.10;77.80;;;;;;4998785;28;20410;-77
2022/10/16 04:24:12;;;;;;;3.25;0.88;;;16.10;77.90;;;;;;5016212;28;20033;-77
2022/10/16 04:26:38;;;;;;;4.20;0.90;;;16.10;78.10;;;;;;5016067;28;20026;-78
2022/10/16 04:29:04;;;;;;;1.88;0.60;;;16.10;78.20;;;;;;4998679;28;20379;-78
2022/10/16 04:31:29;;;;;;;2.17;0.75;;;16.10;78.10;;;;;;5016224;28;20036;-78
2022/10/16 04:33:55;;;;;;;1.83;0.90;;;16.10;78.10;;;;;;5016025;28;20017;-78
2022/10/16 04:36:20;;;;;;;3.80;0.70;;;16.10;78.20;;;;;;5016151;28;20030;-78
2022/10/16 04:38:46;;;;;;;1.60;0.85;;;16.10;78.30;;;;;;5015991;28;20026;-78
2022/10/16 04:41:12;;;;;;;2.50;0.80;;;16.00;78.30;;;;;;5016051;28;20022;-78
2022/10/16 04:43:37;;;;;;;3.13;0.82;;;16.10;78.50;;;;;;5015966;28;20022;-78
2022/10/16 04:46:04;;;;;;;4.43;0.60;;;16.10;78.50;;;;;;4998027;28;20049;-78
2022/10/16 04:48:30;;;;;;;1.90;0.88;;;16.00;78.40;;;;;;5016023;28;20076;-78
2022/10/16 04:50:56;;;;;;;1.60;0.80;;;16.00;78.30;;;;;;5015583;28;20538;-77
2022/10/16 04:53:22;;;;;;;4.57;0.85;;;16.00;78.10;;;;;;5015437;28;20028;-78
2022/10/16 04:55:47;;;;;;;4.88;0.88;;;16.00;78.00;;;;;;5015454;28;20422;-78
2022/10/16 04:58:13;;;;;;;0.65;0.52;;;16.10;77.90;;;;;;5015538;28;20018;-78
2022/10/16 05:00:38;;;;;;;2.25;0.75;;;16.10;77.70;;;;;;5015672;28;20034;-78
2022/10/16 05:03:07;;;;;;;1.88;0.90;;;16.10;77.60;;;;;;5015602;28;20018;-78
2022/10/16 05:05:33;;;;;;;3.20;0.75;;;16.10;77.70;;;;;;5015508;28;20036;-78
2022/10/16 05:07:58;;;;;;;4.15;0.73;;;16.10;77.70;;;;;;5015389;28;20022;-77
2022/10/16 05:10:24;;;;;;;3.67;0.80;;;16.10;77.50;;;;;;5015416;28;20028;-78
2022/10/16 05:12:51;;;;;;;1.02;0.90;;;16.10;77.40;;;;;;5015185;28;20056;-77
2022/10/16 05:15:16;;;;;;;1.23;0.85;;;16.10;77.30;;;;;;4997664;28;20040;-78
2022/10/16 05:17:42;;;;;;;1.80;1.10;;;16.10;77.20;;;;;;5015315;28;20108;-78
2022/10/16 05:20:08;;;;;;;0.80;0.70;;;16.10;77.30;;;;;;5015268;28;20471;-77
2022/10/16 05:22:33;;;;;;;1.52;0.90;;;16.10;77.40;;;;;;5014021;28;20045;-78
2022/10/16 05:24:59;;;;;;;2.88;1.23;;;16.10;77.50;;;;;;4997430;28;20045;-77
2022/10/16 05:27:24;;;;;;;3.00;1.20;;;16.10;77.60;;;;;;5015135;28;20102;-78
2022/10/16 05:29:50;;;;;;;1.63;1.27;;;16.00;77.60;;;;;;5015046;28;20076;-78
2022/10/16 05:32:17;;;;;;;1.30;1.20;;;16.10;77.60;;;;;;5015020;28;20034;-78
2022/10/16 05:34:42;;;;;;;2.28;1.30;;;16.10;77.70;;;;;;5015029;28;20054;-78
2022/10/16 05:37:08;;;;;;;2.17;1.02;;;16.00;77.60;;;;;;5014843;28;20390;-77
2022/10/16 05:39:34;;;;;;;1.17;0.93;;;16.00;77.50;;;;;;5014855;28;20026;-77
2022/10/16 05:42:00;;;;;;;1.27;0.85;;;16.00;77.50;;;;;;5014881;28;20030;-77
2022/10/16 05:44:25;;;;;;;1.52;0.90;;;16.00;77.50;;;;;;5014571;28;20022;-77
2022/10/16 05:46:51;;;;;;;3.00;0.98;;;16.00;77.50;;;;;;5014788;28;20026;-78
2022/10/16 05:49:16;;;;;;;1.08;0.68;;;16.00;77.30;;;;;;5014766;28;20030;-77
2022/10/16 05:51:42;;;;;;;2.67;0.90;;;16.00;77.00;;;;;;5015055;28;20030;-78
2022/10/16 05:54:08;;;;;;;3.97;1.70;;;16.10;77.00;;;;;;5014686;28;20057;-77
2022/10/16 05:56:33;;;;;;;4.75;2.42;;;16.10;76.50;;;;;;5014727;28;20502;-78
2022/10/16 05:58:59;;;;;;;5.85;3.50;;;16.10;76.40;;;;;;5014607;28;20030;-77
2022/10/16 06:01:25;;;;;;;7.20;4.50;;;16.10;76.40;;;;;;4996901;28;20026;-77
2022/10/16 06:03:51;;;;;;;12.30;6.13;;;16.10;76.30;;;;;;5014176;28;20022;-78
2022/10/16 06:06:22;;;;;;;12.35;7.10;;;16.20;76.10;;;;;;5014216;28;20069;-77
2022/10/16 06:08:49;;;;;;;9.43;6.00;;;16.20;75.90;;;;;;5014448;28;20427;-77
2022/10/16 06:11:19;;;;;;;6.72;3.72;;;16.20;75.70;;;;;;5014259;28;20037;-77
2022/10/16 06:13:45;;;;;;;8.13;3.80;;;16.30;75.50;;;;;;5014201;28;20037;-77
2022/10/16 06:16:12;;;;;;;3.85;2.42;;;16.30;75.40;;;;;;5014259;28;20033;-77
2022/10/16 06:18:38;;;;;;;3.55;1.40;;;16.30;75.30;;;;;;5014071;28;20533;-77
2022/10/16 06:21:17;;;;;;;1.67;1.15;;;16.30;75.10;;;;;;5014119;28;20037;-77
2022/10/16 06:23:43;;;;;;;4.80;1.15;;;16.40;74.90;;;;;;5014023;28;20030;-77
2022/10/16 06:26:13;;;;;;;1.10;0.80;;;16.40;74.80;;;;;;5013856;28;20049;-78
2022/10/16 06:28:39;;;;;;;1.42;0.77;;;16.50;74.60;;;;;;5013991;28;20029;-77
2022/10/16 06:31:06;;;;;;;0.88;0.77;;;16.50;74.40;;;;;;5013890;28;20034;-78
2022/10/16 06:33:32;;;;;;;2.20;0.80;;;16.60;74.00;;;;;;5013502;28;20022;-77
2022/10/16 06:36:03;;;;;;;6.20;0.70;;;16.50;74.00;;;;;;5013972;28;20087;-78
2022/10/16 06:38:29;;;;;;;2.53;2.03;;;16.60;73.50;;;;;;5013800;28;20030;-78
2022/10/16 06:40:54;;;;;;;2.63;1.58;;;16.60;73.10;;;;;;5013482;28;20025;-78
2022/10/16 06:43:20;;;;;;;1.10;0.82;;;16.70;72.90;;;;;;5013758;28;20034;-78
2022/10/16 06:45:56;;;;;;;1.38;0.60;;;16.70;72.40;;;;;;5013418;28;20049;-78
2022/10/16 06:48:22;;;;;;;3.92;1.02;;;16.80;71.70;;;;;;5013772;28;20097;-78
2022/10/16 06:51:00;;;;;;;1.75;0.90;;;16.90;72.00;;;;;;5013353;28;20033;-78
2022/10/16 06:53:28;;;;;;;1.83;1.15;;;17.00;72.10;;;;;;5013513;28;20022;-78
2022/10/16 06:55:53;;;;;;;1.52;0.90;;;17.00;72.20;;;;;;5013424;28;20396;-77
2022/10/16 06:58:19;;;;;;;2.15;1.15;;;17.00;72.10;;;;;;5013272;28;20061;-78
2022/10/16 07:00:45;;;;;;;1.40;0.80;;;17.10;70.90;;;;;;5013521;28;20048;-77
2022/10/16 07:03:10;;;;;;;4.13;1.00;;;17.10;71.20;;;;;;5013343;28;20084;-77
2022/10/16 07:05:42;;;;;;;0.93;0.60;;;17.10;71.70;;;;;;5013329;28;20044;-77
2022/10/16 07:08:08;;;;;;;15.18;10.75;;;17.20;72.00;;;;;;4995786;28;20028;-76
2022/10/16 07:10:34;;;;;;;41.40;34.03;;;17.20;72.10;;;;;;5013482;28;20101;-78
2022/10/16 07:13:00;;;;;;;3.75;1.85;;;17.20;72.40;;;;;;5013244;28;20017;-77
2022/10/16 07:15:26;;;;;;;3.63;2.00;;;17.20;71.30;;;;;;5013529;28;20478;-79
2022/10/16 07:17:52;;;;;;;4.50;1.60;;;17.30;71.30;;;;;;5013322;28;20037;-77
2022/10/16 07:20:18;;;;;;;3.67;1.50;;;17.30;71.20;;;;;;4995551;28;20409;-77
2022/10/16 07:22:43;;;;;;;0.85;0.60;;;17.40;71.20;;;;;;5013559;28;20033;-77
2022/10/16 07:25:09;;;;;;;1.48;0.90;;;17.50;71.30;;;;;;5013076;28;20034;-77
2022/10/16 07:27:35;;;;;;;1.33;0.70;;;17.50;71.20;;;;;;5013083;28;20100;-77
2022/10/16 07:30:01;;;;;;;3.28;0.80;;;17.50;69.00;;;;;;5014232;28;20034;-77
2022/10/16 07:32:26;;;;;;;3.67;0.77;;;17.60;69.40;;;;;;5014128;28;20029;-79
2022/10/16 07:34:53;;;;;;;3.85;0.70;;;17.70;68.30;;;;;;5013108;28;20026;-77
2022/10/16 07:37:18;;;;;;;4.53;1.20;;;17.70;66.20;;;;;;5013217;28;20022;-76
2022/10/16 07:39:44;;;;;;;0.55;0.40;;;17.80;66.10;;;;;;5013322;28;20022;-75
2022/10/16 07:42:09;;;;;;;0.82;0.52;;;18.00;64.90;;;;;;5013063;28;20022;-74
2022/10/16 07:44:35;;;;;;;4.70;0.82;;;18.10;63.70;;;;;;5012856;28;20061;-75
2022/10/16 07:47:00;;;;;;;1.33;0.52;;;18.20;63.00;;;;;;5016234;28;20057;-76
2022/10/16 07:49:26;;;;;;;2.35;1.20;;;18.30;61.30;;;;;;5017054;28;20474;-75
2022/10/16 07:51:51;;;;;;;6.60;1.10;;;18.40;62.00;;;;;;5016557;28;20434;-75
2022/10/16 07:54:17;;;;;;;2.78;1.10;;;18.50;61.70;;;;;;5016740;28;20418;-75
2022/10/16 07:56:43;;;;;;;3.17;0.65;;;18.60;60.90;;;;;;4999111;28;20048;-76
2022/10/16 07:59:08;;;;;;;2.35;0.68;;;18.60;61.00;;;;;;5016675;28;20022;-78
2022/10/16 08:01:34;;;;;;;0.85;0.50;;;18.70;60.60;;;;;;4998969;28;20022;-78
2022/10/16 08:03:59;;;;;;;1.98;0.80;;;18.80;60.20;;;;;;5016552;28;20053;-77
2022/10/16 08:06:25;;;;;;;2.22;0.65;;;18.80;60.90;;;;;;5016615;28;20061;-80
2022/10/16 08:08:51;;;;;;;2.63;0.73;;;18.80;60.30;;;;;;5016520;28;20038;-79
2022/10/16 08:11:17;;;;;;;0.88;0.63;;;18.90;60.20;;;;;;5016468;28;20029;-79
2022/10/16 08:13:42;;;;;;;3.42;0.60;;;18.90;59.20;;;;;;5016201;28;20088;-79
2022/10/16 08:16:09;;;;;;;0.90;0.70;;;18.90;59.60;;;;;;5016578;28;20068;-83
2022/10/16 08:18:36;;;;;;;1.17;0.77;;;18.90;59.70;;;;;;5016232;28;20080;-82
2022/10/16 08:21:02;;;;;;;3.15;0.60;;;19.00;59.90;;;;;;5016469;28;20025;-80
2022/10/16 08:23:28;;;;;;;2.10;0.82;;;19.00;59.20;;;;;;5016331;28;20084;-79
2022/10/16 08:25:55;;;;;;;5.05;0.88;;;19.00;59.30;;;;;;4998639;28;20460;-79
2022/10/16 08:28:21;;;;;;;1.83;0.90;;;19.10;58.40;;;;;;5016258;28;20382;-79
2022/10/16 08:30:47;;;;;;;2.17;0.90;;;19.10;58.60;;;;;;5016284;28;20483;-80
2022/10/16 08:33:12;;;;;;;2.55;0.75;;;19.20;58.40;;;;;;5016079;28;20022;-81
2022/10/16 08:35:38;;;;;;;0.68;0.52;;;19.20;58.00;;;;;;5016169;28;20029;-79
2022/10/16 08:38:04;;;;;;;2.22;0.95;;;19.30;57.80;;;;;;5015953;28;20048;-83
2022/10/16 08:40:32;;;;;;;0.90;0.77;;;19.40;57.90;;;;;;5016374;28;20033;-79
2022/10/16 08:43:31;;;;;;;1.67;0.70;;;19.50;57.10;;;;;;4998427;28;20022;-82
2022/10/16 08:46:20;;;;;;;0.90;0.70;;;19.60;56.40;;;;;;5015698;28;20076;-78
2022/10/16 08:48:51;;;;;;;1.73;0.70;;;19.60;55.20;;;;;;5019045;28;20028;-77
2022/10/16 08:51:27;;;;;;;0.93;0.63;;;19.70;54.90;;;;;;5035509;28;20029;-78
2022/10/16 08:54:14;;;;;;;1.55;0.65;;;19.70;54.90;;;;;;5035073;28;20025;-76
2022/10/16 08:56:39;;;;;;;1.67;0.68;;;19.70;54.60;;;;;;5032947;28;20029;-76
2022/10/16 08:59:10;;;;;;;3.13;0.85;;;19.80;54.40;;;;;;5034100;28;20424;-76
2022/10/16 09:01:44;;;;;;;4.45;0.52;;;19.70;54.20;;;;;;5033668;28;20219;-77
2022/10/16 09:04:40;;;;;;;1.02;0.77;;;19.70;53.90;;;;;;5023771;28;20022;-77
2022/10/16 09:07:16;;;;;;;2.15;0.50;;;19.70;54.30;;;;;;5035739;28;20124;-77
2022/10/16 09:10:00;;;;;;;;;;;19.80;53.70;;;;;;5035572;28;20049;-77
2022/10/16 09:12:44;;;;;;;4.53;0.80;;;19.70;54.30;;;;;;5050567;28;19905;-77
2022/10/16 09:15:37;;;;;;;4.30;0.80;;;19.80;53.50;;;;;;5035265;28;20493;-77
2022/10/16 09:18:20;;;;;;;1.17;0.65;;;19.80;53.40;;;;;;5035074;28;20033;-77
2022/10/16 09:21:00;;;;;;;1.20;0.57;;;19.80;54.60;;;;;;5035208;28;20025;-76
2022/10/16 09:23:28;;;;;;;2.05;0.60;;;19.90;53.40;;;;;;5035013;28;20025;-77
2022/10/16 09:25:56;;;;;;;1.88;0.60;;;19.90;52.90;;;;;;5034872;28;20037;-77
2022/10/16 09:28:21;;;;;;;0.80;0.50;;;20.00;54.00;;;;;;5034856;28;20071;-77
2022/10/16 09:30:50;;;;;;;1.63;0.82;;;20.00;53.80;;;;;;5034959;28;20033;-76
2022/10/16 09:33:25;;;;;;;1.23;0.70;;;20.00;53.70;;;;;;5034869;28;20026;-77
2022/10/16 09:35:54;;;;;;;1.92;0.70;;;20.10;52.60;;;;;;5034836;28;20022;-77
2022/10/16 09:38:28;;;;;;;7.50;4.63;;;20.00;53.20;;;;;;5034424;28;20068;-78
2022/10/16 09:40:54;;;;;;;0.95;0.75;;;20.00;53.80;;;;;;5034544;28;20032;-78
2022/10/16 09:43:39;;;;;;;3.90;0.85;;;20.00;53.20;;;;;;5034383;28;20026;-79
2022/10/16 09:46:21;;;;;;;1.40;1.00;;;20.10;53.80;;;;;;5034328;28;20041;-79
2022/10/16 09:48:53;;;;;;;0.98;0.70;;;20.10;53.40;;;;;;5016654;28;20021;-79
2022/10/16 09:51:27;;;;;;;0.70;0.60;;;20.10;52.80;;;;;;5033778;28;20393;-79
2022/10/16 09:54:11;;;;;;;4.75;1.20;;;20.00;53.50;;;;;;5034323;28;20026;-77
2022/10/16 09:56:40;;;;;;;1.77;1.00;;;20.00;52.80;;;;;;5034200;28;20576;-77
2022/10/16 09:59:23;;;;;;;1.58;1.00;;;19.90;53.10;;;;;;5034248;28;20032;-77
2022/10/16 10:01:51;;;;;;;11.43;6.03;;;19.90;53.70;;;;;;5034564;28;20037;-77
2022/10/16 10:04:19;;;;;;;3.60;1.10;;;19.90;52.60;;;;;;5034217;28;20029;-77
2022/10/16 10:06:52;;;;;;;1.85;1.00;;;19.80;53.30;;;;;;5034035;28;20044;-78
2022/10/16 10:09:24;;;;;;;2.22;1.00;;;19.90;53.60;;;;;;5032764;28;20022;-77
2022/10/16 10:11:55;;;;;;;11.85;1.23;;;19.90;53.40;;;;;;5033349;28;20026;-77
2022/10/16 10:15:01;;;;;;;4.80;1.20;;;20.00;53.00;;;;;;5034290;28;20025;-78
2022/10/16 10:17:28;;;;;;;2.05;0.90;;;20.10;52.80;;;;;;5020010;28;20038;-79
2022/10/16 10:20:00;;;;;;;3.40;1.08;;;20.20;50.90;;;;;;5016291;28;20026;-78
2022/10/16 10:22:38;;;;;;;6.93;1.50;;;20.40;49.90;;;;;;5034136;28;20063;-78
2022/10/16 10:25:12;;;;;;;3.97;1.40;;;20.50;50.00;;;;;;5016081;28;20099;-77
2022/10/16 10:28:03;;;;;;;1.47;1.10;;;20.70;50.00;;;;;;5033993;28;20022;-77
2022/10/16 10:30:36;;;;;;;2.85;1.10;;;21.00;48.80;;;;;;5033829;28;20049;-77
2022/10/16 10:33:09;;;;;;;3.70;1.20;;;21.60;47.70;;;;;;5033765;28;20021;-77
2022/10/16 10:35:45;;;;;;;2.35;0.80;;;22.20;45.30;;;;;;5033739;28;20092;-78
2022/10/16 10:38:30;;;;;;;2.03;0.88;;;22.60;43.10;;;;;;5033733;28;20033;-78
2022/10/16 10:41:04;;;;;;;1.88;1.10;;;22.80;43.20;;;;;;5033978;28;20030;-80
2022/10/16 10:43:59;;;;;;;1.30;0.73;;;23.20;40.80;;;;;;5034080;28;20029;-79
2022/10/16 10:46:43;;;;;;;1.75;0.65;;;23.30;40.70;;;;;;5032586;28;20037;-79
2022/10/16 10:49:31;;;;;;;4.80;1.10;;;23.60;40.30;;;;;;5031196;28;20024;-79
2022/10/16 10:52:21;;;;;;;2.15;1.15;;;23.80;39.30;;;;;;5029857;28;20044;-79
2022/10/16 10:55:13;;;;;;;1.25;0.95;;;23.70;40.30;;;;;;5033362;28;20040;-79
2022/10/16 10:58:06;;;;;;;1.48;0.73;;;23.90;39.10;;;;;;5016087;28;20117;-80
2022/10/16 11:01:05;;;;;;;2.30;1.00;;;24.20;38.20;;;;;;5033391;28;20068;-79
2022/10/16 11:03:46;;;;;;;2.58;1.00;;;24.20;38.60;;;;;;5010063;28;20033;-79
2022/10/16 11:06:28;;;;;;;1.27;0.70;;;24.20;38.20;;;;;;5004743;28;20124;-79
2022/10/16 11:08:56;;;;;;;3.22;0.82;;;24.40;38.10;;;;;;5030044;28;20024;-80
2022/10/16 11:11:40;;;;;;;3.72;0.90;;;24.60;37.40;;;;;;5033411;28;20040;-79
2022/10/16 11:14:11;;;;;;;1.40;0.70;;;24.40;36.80;;;;;;5033425;28;20367;-79
2022/10/16 11:16:45;;;;;;;3.00;1.00;;;24.50;38.10;;;;;;5033412;28;20030;-80
2022/10/16 11:19:22;;;;;;;1.37;0.90;;;24.50;37.80;;;;;;5015694;28;20037;-79
2022/10/16 11:22:01;;;;;;;2.13;0.90;;;24.50;37.80;;;;;;5033153;28;20033;-79
2022/10/16 11:24:39;;;;;;;2.00;0.90;;;24.60;38.00;;;;;;5033217;28;20032;-80
2022/10/16 11:27:11;;;;;;;3.25;0.93;;;24.50;36.80;;;;;;5032868;28;20026;-79
2022/10/16 11:29:46;;;;;;;1.67;0.95;;;24.40;36.80;;;;;;5032999;28;20022;-80
2022/10/16 11:32:23;;;;;;;2.10;1.17;;;24.40;38.20;;;;;;5032879;28;20025;-80
2022/10/16 11:35:02;;;;;;;3.00;0.95;;;24.20;38.00;;;;;;5032937;28;20179;-80
2022/10/16 11:37:39;;;;;;;1.90;0.80;;;24.10;38.20;;;;;;5032008;28;20511;-79
2022/10/16 11:40:29;;;;;;;3.60;0.75;;;23.90;38.40;;;;;;5032839;28;20068;-80
2022/10/16 11:43:01;;;;;;;4.68;1.15;;;23.70;38.30;;;;;;5032855;28;20049;-80
2022/10/16 11:45:39;;;;;;;1.50;1.00;;;23.60;38.90;;;;;;5032641;28;20048;-80
2022/10/16 11:48:20;;;;;;;1.77;1.25;;;23.50;40.20;;;;;;5014989;28;20367;-79
2022/10/16 11:50:45;;;;;;;2.90;1.05;;;23.60;39.70;;;;;;5032670;28;20474;-79
2022/10/16 11:53:34;;;;;;;1.42;0.90;;;23.70;39.70;;;;;;5032138;28;20152;-79
2022/10/16 11:56:00;;;;;;;0.88;0.63;;;23.70;39.40;;;;;;5012764;28;20026;-80
2022/10/16 11:59:02;;;;;;;2.10;1.13;;;23.90;39.60;;;;;;4995298;28;20573;-80
2022/10/16 12:01:38;;;;;;;4.95;1.00;;;24.20;39.20;;;;;;4990387;28;20048;-80
2022/10/16 12:04:33;;;;;;;1.65;0.70;;;24.70;37.80;;;;;;4995204;28;20080;-80
2022/10/16 12:07:09;;;;;;;5.87;1.33;;;24.70;38.10;;;;;;5012853;28;20038;-79
2022/10/16 12:09:38;;;;;;;2.33;1.40;;;25.00;37.30;;;;;;5012929;28;20275;-80
2022/10/16 12:12:06;;;;;;;2.20;1.33;;;25.20;37.40;;;;;;5012832;28;20501;-78
2022/10/16 12:14:39;;;;;;;2.58;1.80;;;25.40;36.20;;;;;;5012840;28;20030;-79
2022/10/16 12:17:20;;;;;;;1.90;1.60;;;25.50;37.10;;;;;;4995108;28;20030;-77
2022/10/16 12:20:01;;;;;;;1.67;1.05;;;25.80;36.80;;;;;;5012687;28;20026;-79
2022/10/16 12:22:30;;;;;;;3.90;0.93;;;26.00;36.60;;;;;;5012728;28;20474;-77
2022/10/16 12:24:56;;;;;;;2.15;0.80;;;26.00;36.50;;;;;;5012634;28;20072;-77
2022/10/16 12:27:27;;;;;;;2.95;1.13;;;26.10;37.40;;;;;;4995136;28;20386;-77
2022/10/16 12:30:05;;;;;;;3.50;1.33;;;26.40;36.30;;;;;;5012622;28;20026;-77
2022/10/16 12:32:37;;;;;;;2.97;1.13;;;26.30;35.60;;;;;;5014751;28;20109;-76
2022/10/16 12:35:06;;;;;;;1.42;0.73;;;26.20;35.50;;;;;;5016429;28;20066;-77
2022/10/16 12:37:34;;;;;;;3.85;0.93;;;26.10;35.90;;;;;;5016200;28;20398;-77
2022/10/16 12:40:13;;;;;;;2.85;1.20;;;26.10;35.50;;;;;;5015998;28;20113;-76
2022/10/16 12:42:38;;;;;;;1.08;0.98;;;26.40;34.60;;;;;;5016067;28;20061;-75
2022/10/16 12:45:24;;;;;;;5.75;1.08;;;26.70;34.30;;;;;;5015753;28;20077;-76
2022/10/16 12:47:53;;;;;;;1.25;0.80;;;26.90;33.20;;;;;;4998441;28;20076;-76
2022/10/16 12:50:33;;;;;;;1.75;0.90;;;27.00;33.50;;;;;;5015810;28;20018;-75
2022/10/16 12:53:00;;;;;;;1.83;0.95;;;27.50;32.80;;;;;;5015820;28;20045;-75
2022/10/16 12:55:32;;;;;;;4.00;0.90;;;28.00;32.70;;;;;;5015732;28;20052;-75
2022/10/16 12:58:18;;;;;;;4.22;0.82;;;28.10;32.20;;;;;;5015717;28;20097;-75
2022/10/16 13:00:52;;;;;;;;;;;28.50;31.80;;;;;;5016164;28;20025;-78
2022/10/16 13:03:49;;;;;;;1.00;0.90;;;28.30;32.20;;;;;;5030983;28;20255;-79
2022/10/16 13:06:45;;;;;;;2.92;0.65;;;28.10;32.00;;;;;;5015603;28;20045;-78
2022/10/16 13:09:43;;;;;;;3.13;0.90;;;27.50;32.90;;;;;;5015573;28;20386;-77